Time;durP1;ratioP1;P1;durP2;ratioP2;P2;SDS_P1;SDS_P2;PMS_P1;PMS_P2;Temp;Humidity;BMP_temperature;BMP_pressure;BME280_temperature;BME280_humidity;BME280_pressure;Samples;Min_cycle;Max_cycle;Signal;HPM_P1;HPM_P2
2022/07/04 00:01:41;;;;;;;6.18;3.53;;;;;;;23.81;53.19;100165.88;4936198;29;20047;-70
2022/07/04 00:04:09;;;;;;;7.95;3.60;;;;;;;23.77;53.59;100170.00;4935848;29;20044;-70
2022/07/04 00:06:38;;;;;;;6.35;3.70;;;;;;;23.77;53.44;100164.56;4919118;29;20051;-69
2022/07/04 00:09:06;;;;;;;4.93;3.28;;;;;;;23.76;53.20;100171.03;4936095;29;20099;-70
2022/07/04 00:11:34;;;;;;;5.70;3.53;;;;;;;23.78;52.91;100166.25;4936136;29;20047;-70
2022/07/04 00:14:03;;;;;;;7.78;3.67;;;;;;;23.80;52.88;100162.31;4936013;29;20058;-69
2022/07/04 00:16:31;;;;;;;5.00;3.28;;;;;;;23.77;53.36;100162.69;4935959;29;20058;-70
2022/07/04 00:19:00;;;;;;;6.90;3.80;;;;;;;23.68;54.18;100167.34;4935701;29;20067;-70
2022/07/04 00:21:28;;;;;;;6.90;4.10;;;;;;;23.58;54.33;100161.22;4935824;29;20054;-70
2022/07/04 00:23:56;;;;;;;8.57;3.67;;;;;;;23.45;54.61;100158.25;4936077;29;20501;-71
2022/07/04 00:26:25;;;;;;;6.60;3.78;;;;;;;23.64;53.96;100167.84;4936181;29;20485;-70
2022/07/04 00:28:53;;;;;;;8.57;5.97;;;;;;;23.65;53.77;100161.41;4936034;29;20059;-71
2022/07/04 00:31:22;;;;;;;6.03;3.90;;;;;;;23.63;53.42;100158.84;4935865;29;20047;-70
2022/07/04 00:33:51;;;;;;;5.85;3.38;;;;;;;23.65;52.71;100164.13;4936319;29;20083;-78
2022/07/04 00:36:19;;;;;;;7.57;3.45;;;;;;;23.61;52.74;100160.91;4936012;29;20048;-69
2022/07/04 00:38:47;;;;;;;5.57;3.25;;;;;;;23.70;52.27;100165.28;4935887;29;20450;-69
2022/07/04 00:41:15;;;;;;;4.95;3.13;;;;;;;23.73;51.49;100168.66;4935593;29;20446;-69
2022/07/04 00:43:44;;;;;;;6.53;3.40;;;;;;;23.67;52.17;100172.97;4935691;29;20044;-68
2022/07/04 00:46:33;;;;;;;5.57;3.30;;;;;;;23.82;51.44;100171.16;4935908;29;20568;-68
2022/07/04 00:49:04;;;;;;;5.75;3.50;;;;;;;23.78;51.62;100168.97;4935540;29;20044;-70
2022/07/04 00:51:32;;;;;;;6.13;3.28;;;;;;;23.86;51.20;100171.66;4935758;29;20052;-68
2022/07/04 00:54:01;;;;;;;5.82;3.17;;;;;;;23.52;52.46;100166.53;4935431;29;20464;-69
2022/07/04 00:56:30;;;;;;;6.50;3.75;;;;;;;23.34;53.80;100162.19;4918970;29;20044;-68
2022/07/04 00:58:59;;;;;;;6.03;3.40;;;;;;;23.37;53.25;100167.28;4935718;29;20083;-68
2022/07/04 01:01:27;;;;;;;6.22;3.42;;;;;;;23.37;53.57;100172.75;4935731;29;20469;-68
2022/07/04 01:03:57;;;;;;;5.68;3.55;;;;;;;23.22;54.59;100163.59;4935308;29;20047;-70
2022/07/04 01:06:25;;;;;;;4.95;3.72;;;;;;;23.22;54.22;100163.59;4935553;29;20477;-69
2022/07/04 01:08:54;;;;;;;5.00;3.47;;;;;;;23.24;54.18;100166.16;4935498;29;20090;-74
2022/07/04 01:11:22;;;;;;;5.68;3.83;;;;;;;23.27;54.15;100163.09;4922571;29;20051;-71
2022/07/04 01:13:50;;;;;;;7.43;3.90;;;;;;;23.24;54.59;100167.00;4939251;29;20044;-70
2022/07/04 01:16:19;;;;;;;7.53;3.90;;;;;;;23.27;54.57;100166.66;4939234;29;20048;-71
2022/07/04 01:18:47;;;;;;;7.03;3.60;;;;;;;23.18;54.12;100167.72;4939233;29;20047;-70
2022/07/04 01:21:17;;;;;;;5.15;3.40;;;;;;;23.26;53.46;100166.81;4939100;29;20048;-70
2022/07/04 01:23:45;;;;;;;5.13;3.72;;;;;;;23.21;53.43;100164.63;4939047;29;20382;-70
2022/07/04 01:26:14;;;;;;;4.72;3.80;;;;;;;23.20;53.97;100170.25;4938935;29;20051;-70
2022/07/04 01:28:42;;;;;;;6.28;3.67;;;;;;;23.28;53.70;100168.34;4938554;29;20497;-71
2022/07/04 01:31:12;;;;;;;9.32;3.80;;;;;;;23.30;53.62;100166.28;4938590;29;20051;-71
2022/07/04 01:33:40;;;;;;;4.93;3.25;;;;;;;23.18;53.79;100172.31;4938878;29;20074;-71
2022/07/04 01:36:08;;;;;;;5.32;3.70;;;;;;;23.11;54.15;100170.28;4938943;29;20082;-71
2022/07/04 01:38:38;;;;;;;8.50;3.80;;;;;;;22.96;54.62;100168.44;4939004;29;20043;-71
2022/07/04 01:41:06;;;;;;;5.55;3.70;;;;;;;22.82;54.96;100168.13;4938523;29;20047;-71
2022/07/04 01:43:35;;;;;;;6.55;4.00;;;;;;;22.83;54.81;100168.97;4938949;29;20036;-71
2022/07/04 01:46:03;;;;;;;5.25;3.60;;;;;;;22.91;54.88;100168.97;4938409;29;20504;-71
2022/07/04 01:48:31;;;;;;;7.38;4.00;;;;;;;22.89;54.82;100173.75;4938312;29;20051;-71
2022/07/04 01:50:59;;;;;;;6.47;4.07;;;;;;;22.74;55.32;100170.84;4938392;29;20126;-72
2022/07/04 01:53:27;;;;;;;6.57;3.80;;;;;;;22.66;55.62;100168.13;4938598;29;20050;-70
2022/07/04 01:55:57;;;;;;;8.98;4.13;;;;;;;22.64;55.72;100163.91;4921477;29;20086;-70
2022/07/04 01:58:25;;;;;;;6.80;4.00;;;;;;;22.92;54.52;100176.13;4938335;29;20052;-71
2022/07/04 02:03:39;;;;;;;7.00;4.10;;;;;;;22.96;54.49;100176.59;4938418;29;20055;-71
2022/07/04 02:06:07;;;;;;;7.20;4.10;;;;;;;22.70;55.78;100180.38;4938269;29;20044;-71
2022/07/04 02:11:19;;;;;;;7.78;4.10;;;;;;;22.45;56.57;100181.41;4937319;29;20486;-70
2022/07/04 02:13:46;;;;;;;6.05;4.03;;;;;;;22.54;56.23;100174.94;4938386;29;20102;-70
2022/07/04 02:16:15;;;;;;;5.45;4.00;;;;;;;22.73;55.15;100180.03;4938114;29;20093;-71
2022/07/04 02:18:43;;;;;;;6.47;4.40;;;;;;;22.55;55.89;100177.50;4938203;29;20077;-71
2022/07/04 02:21:12;;;;;;;7.50;4.28;;;;;;;22.48;56.29;100181.06;4936898;29;20114;-70
2022/07/04 02:23:41;;;;;;;7.60;4.40;;;;;;;22.65;55.63;100187.34;4937932;29;20051;-69
2022/07/04 02:26:09;;;;;;;6.10;4.07;;;;;;;22.82;54.27;100183.59;4937784;29;20044;-71
2022/07/04 02:28:38;;;;;;;5.97;4.22;;;;;;;22.81;54.53;100171.00;4937847;29;20056;-70
2022/07/04 02:31:06;;;;;;;6.20;3.80;;;;;;;22.78;54.78;100172.22;4937560;29;20077;-70
2022/07/04 02:33:34;;;;;;;8.05;4.18;;;;;;;22.72;54.90;100166.59;4937679;29;20056;-69
2022/07/04 02:36:03;;;;;;;6.60;4.35;;;;;;;22.77;54.26;100167.78;4937533;29;20079;-71
2022/07/04 02:38:31;;;;;;;6.95;4.10;;;;;;;22.71;54.73;100165.75;4937764;29;20042;-68
2022/07/04 02:40:59;;;;;;;6.63;4.40;;;;;;;22.66;54.67;100167.28;4937440;29;20091;-75
2022/07/04 02:43:27;;;;;;;7.10;4.20;;;;;;;22.72;54.86;100177.47;4937879;29;20054;-71
2022/07/04 02:45:57;;;;;;;5.45;4.18;;;;;;;22.68;55.10;100176.13;4937835;29;20050;-70
2022/07/04 02:48:25;;;;;;;7.07;4.13;;;;;;;22.69;55.04;100183.28;4937405;29;20044;-69
2022/07/04 02:50:54;;;;;;;6.18;4.32;;;;;;;22.71;55.11;100187.50;4937282;29;20047;-70
2022/07/04 02:53:22;;;;;;;7.05;4.25;;;;;;;22.69;54.91;100184.13;4937365;29;20063;-70
2022/07/04 02:55:50;;;;;;;8.45;4.47;;;;;;;22.79;54.71;100184.78;4937588;29;20044;-70
2022/07/04 02:58:18;;;;;;;6.25;4.45;;;;;;;22.74;55.01;100181.72;4937388;29;20474;-70
2022/07/04 03:00:47;;;;;;;7.30;4.28;;;;;;;22.66;55.11;100187.16;4937321;29;20047;-70
2022/07/04 03:03:16;;;;;;;7.05;4.30;;;;;;;22.60;55.56;100190.59;4919879;29;20056;-71
2022/07/04 03:05:44;;;;;;;5.63;4.30;;;;;;;22.69;55.50;100186.84;4937121;29;20389;-70
2022/07/04 03:08:12;;;;;;;5.78;4.40;;;;;;;22.85;54.86;100177.81;4937129;29;20047;-70
2022/07/04 03:10:41;;;;;;;6.45;4.43;;;;;;;23.01;54.02;100183.22;4937148;29;20051;-72
2022/07/04 03:13:09;;;;;;;6.72;4.22;;;;;;;23.16;53.87;100185.22;4936968;29;20039;-70
2022/07/04 03:15:37;;;;;;;6.75;4.25;;;;;;;23.17;53.50;100185.06;4936999;29;20047;-71
2022/07/04 03:18:05;;;;;;;6.75;4.35;;;;;;;22.95;54.65;100188.50;4936879;29;20043;-71
2022/07/04 03:20:35;;;;;;;6.18;4.20;;;;;;;22.95;54.87;100183.06;4937106;29;20048;-69
2022/07/04 03:23:03;;;;;;;7.63;4.40;;;;;;;23.07;54.12;100188.00;4936694;29;20056;-71
2022/07/04 03:25:32;;;;;;;7.35;4.80;;;;;;;23.14;54.21;100188.13;4936751;29;20051;-69
2022/07/04 03:28:00;;;;;;;6.45;4.28;;;;;;;23.26;53.57;100186.75;4936912;29;20060;-71
2022/07/04 03:30:28;;;;;;;6.00;4.25;;;;;;;23.35;53.04;100179.34;4936591;29;20051;-70
2022/07/04 03:32:57;;;;;;;8.60;4.80;;;;;;;23.45;52.95;100180.03;4936885;29;20515;-69
2022/07/04 03:35:25;;;;;;;5.68;4.13;;;;;;;23.72;52.14;100178.69;4936310;29;20054;-71
2022/07/04 03:37:55;;;;;;;7.40;5.05;;;;;;;23.92;51.49;100177.22;4936625;29;20050;-71
2022/07/04 03:40:24;;;;;;;7.80;4.13;;;;;;;24.53;49.29;100178.16;4936328;29;20059;-71
2022/07/04 03:42:52;;;;;;;7.47;4.65;;;;;;;25.29;47.30;100169.88;4936406;29;20050;-71
2022/07/04 03:45:20;;;;;;;8.50;4.55;;;;;;;26.43;44.48;100169.09;4936410;29;20044;-71
2022/07/04 03:47:48;;;;;;;5.43;4.28;;;;;;;27.15;43.25;100178.06;4936467;29;20052;-69
2022/07/04 03:50:16;;;;;;;6.68;4.40;;;;;;;27.82;41.48;100169.97;4936204;29;20470;-71
2022/07/04 03:52:44;;;;;;;8.35;4.30;;;;;;;28.28;39.93;100176.59;4936126;29;20040;-71
2022/07/04 03:55:14;;;;;;;7.25;4.28;;;;;;;28.65;39.22;100186.97;4936068;29;20126;-72
2022/07/04 03:57:42;;;;;;;7.10;4.10;;;;;;;29.17;38.57;100176.19;4936461;29;20050;-70
2022/07/04 04:00:11;;;;;;;6.55;4.00;;;;;;;30.01;36.83;100180.69;4936088;29;20044;-71
2022/07/04 04:02:39;;;;;;;7.72;4.38;;;;;;;29.93;37.09;100168.06;4936189;29;20500;-70
2022/07/04 04:05:30;;;;;;;7.68;4.40;;;;;;;30.33;36.19;100179.69;4935963;29;20515;-71
2022/07/04 04:08:00;;;;;;;6.50;3.90;;;;;;;30.62;35.77;100177.34;4936302;29;20075;-70
2022/07/04 04:10:31;;;;;;;8.93;3.80;;;;;;;31.04;34.90;100193.06;4935966;29;20099;-71
2022/07/04 04:12:59;;;;;;;5.85;3.78;;;;;;;31.11;34.96;100186.66;4936160;29;20046;-70
2022/07/04 04:15:28;;;;;;;7.05;4.10;;;;;;;31.74;33.87;100189.94;4935757;29;20054;-69
2022/07/04 04:17:56;;;;;;;6.78;4.30;;;;;;;31.90;33.54;100189.34;4936179;29;20075;-69
2022/07/04 04:20:24;;;;;;;6.43;4.35;;;;;;;31.59;33.81;100187.59;4935581;29;20126;-71
2022/07/04 04:22:52;;;;;;;7.07;4.10;;;;;;;32.01;33.29;100187.69;4936160;29;20051;-70
2022/07/04 04:25:20;;;;;;;6.22;4.25;;;;;;;31.98;33.85;100179.06;4935739;29;20054;-70
2022/07/04 04:27:50;;;;;;;6.78;4.10;;;;;;;32.49;32.50;100188.72;4935780;29;20373;-70
2022/07/04 04:30:18;;;;;;;6.78;4.20;;;;;;;32.51;32.69;100194.81;4935387;29;20052;-71
2022/07/04 04:32:46;;;;;;;6.20;4.07;;;;;;;31.96;33.64;100190.34;4935647;29;20129;-71
2022/07/04 04:35:14;;;;;;;5.65;4.13;;;;;;;32.01;33.38;100195.13;4935710;29;20067;-71
2022/07/04 04:37:42;;;;;;;7.88;4.40;;;;;;;33.52;30.84;100188.97;4935848;29;20409;-71
2022/07/04 04:40:12;;;;;;;6.30;4.20;;;;;;;33.42;31.57;100188.78;4935547;29;20150;-72
2022/07/04 04:42:40;;;;;;;5.38;4.00;;;;;;;33.19;31.73;100188.75;4918618;29;20174;-69
2022/07/04 04:45:11;;;;;;;6.45;4.30;;;;;;;33.31;31.43;100184.06;4937892;29;20048;-69
2022/07/04 04:47:40;;;;;;;8.68;4.10;;;;;;;33.70;30.71;100179.69;4939748;29;20127;-69
2022/07/04 04:50:11;;;;;;;7.30;4.20;;;;;;;33.22;31.93;100178.06;4939217;29;20040;-69
2022/07/04 04:52:39;;;;;;;7.38;4.18;;;;;;;33.37;30.93;100185.88;4939443;29;20051;-69
2022/07/04 04:55:08;;;;;;;7.50;4.57;;;;;;;33.59;30.61;100177.78;4939143;29;20052;-70
2022/07/04 04:57:37;;;;;;;8.20;4.43;;;;;;;34.16;29.62;100172.28;4939411;29;20075;-69
2022/07/04 05:00:06;;;;;;;7.32;4.68;;;;;;;34.64;29.69;100174.50;4939426;29;20043;-69
2022/07/04 05:02:35;;;;;;;6.85;4.40;;;;;;;34.45;28.60;100170.31;4939139;29;20055;-70
2022/07/04 05:05:04;;;;;;;9.48;4.57;;;;;;;34.94;28.43;100163.13;4939391;29;20062;-70
2022/07/04 05:07:32;;;;;;;6.88;4.43;;;;;;;35.04;27.63;100167.16;4938953;29;20047;-68
2022/07/04 05:10:00;;;;;;;8.13;4.07;;;;;;;35.33;27.23;100168.66;4939080;29;20051;-70
2022/07/04 05:12:29;;;;;;;6.70;4.57;;;;;;;35.34;27.49;100170.34;4938275;29;20051;-69
2022/07/04 05:14:57;;;;;;;6.78;4.22;;;;;;;35.27;27.96;100181.59;4939364;29;20075;-67
2022/07/04 05:17:25;;;;;;;6.72;4.13;;;;;;;34.85;28.18;100175.69;4939005;29;20475;-68
2022/07/04 05:19:55;;;;;;;7.55;4.72;;;;;;;35.39;27.13;100169.56;4939112;29;20134;-68
2022/07/04 05:22:24;;;;;;;5.32;4.05;;;;;;;35.77;27.25;100176.97;4938482;29;20055;-68
2022/07/04 05:24:52;;;;;;;5.85;4.20;;;;;;;36.03;26.59;100169.81;4938710;29;20051;-68
2022/07/04 05:27:20;;;;;;;7.32;4.43;;;;;;;35.67;26.78;100186.03;4938536;29;20099;-68
2022/07/04 05:29:48;;;;;;;7.65;4.30;;;;;;;36.07;26.48;100187.59;4938938;29;20453;-69
2022/07/04 05:32:21;;;;;;;7.53;4.60;;;;;;;36.62;26.09;100184.56;4938770;29;20102;-69
2022/07/04 05:34:50;;;;;;;9.63;4.47;;;;;;;36.55;26.01;100194.22;4938752;29;20050;-69
2022/07/04 05:37:19;;;;;;;6.35;4.05;;;;;;;37.23;25.09;100190.56;4948474;29;20055;-69
2022/07/04 05:39:47;;;;;;;9.80;4.28;;;;;;;36.87;24.68;100195.06;4957668;29;20043;-69
2022/07/04 05:42:15;;;;;;;8.90;4.00;;;;;;;36.11;24.66;100183.22;4957557;29;20441;-68
2022/07/04 05:44:43;;;;;;;7.30;3.83;;;;;;;36.15;25.35;100201.03;4951839;29;20112;-69
2022/07/04 05:47:12;;;;;;;10.95;3.55;;;;;;;36.37;24.62;100189.88;4929992;29;20051;-70
2022/07/04 05:49:40;;;;;;;4.80;3.50;;;;;;;36.23;24.09;100192.22;4948467;29;20054;-70
2022/07/04 05:52:08;;;;;;;5.25;3.90;;;;;;;35.68;24.85;100186.88;4948328;29;20036;-70
2022/07/04 05:54:38;;;;;;;5.35;3.83;;;;;;;36.11;24.69;100184.06;4945987;29;20039;-70
2022/07/04 05:57:06;;;;;;;6.80;3.65;;;;;;;36.08;25.05;100192.06;4945579;29;20047;-69
2022/07/04 05:59:34;;;;;;;5.95;3.40;;;;;;;35.97;25.10;100198.59;4957278;29;20126;-68
2022/07/04 06:02:03;;;;;;;7.97;4.00;;;;;;;36.10;24.88;100187.09;4939991;29;20054;-68
2022/07/04 06:04:31;;;;;;;6.85;3.63;;;;;;;36.03;24.65;100189.25;4957258;29;20130;-68
2022/07/04 06:07:00;;;;;;;6.65;3.38;;;;;;;36.13;24.92;100186.56;4957240;29;20050;-68
2022/07/04 06:09:28;;;;;;;4.78;3.30;;;;;;;36.98;23.90;100187.63;4956987;29;20039;-69
2022/07/04 06:11:57;;;;;;;8.27;3.70;;;;;;;36.83;23.95;100196.69;4957100;29;20097;-69
2022/07/04 06:14:25;;;;;;;4.88;3.25;;;;;;;36.03;24.57;100197.56;4957182;29;20051;-70
2022/07/04 06:16:53;;;;;;;3.80;2.90;;;;;;;36.04;24.14;100188.97;4956989;29;20050;-70
2022/07/04 06:19:22;;;;;;;4.57;2.80;;;;;;;36.26;24.45;100191.69;4956733;29;20081;-69
2022/07/04 06:21:50;;;;;;;4.15;3.10;;;;;;;35.56;24.54;100198.09;4956726;29;20043;-69
2022/07/04 06:24:18;;;;;;;4.63;3.10;;;;;;;35.66;24.78;100189.91;4956753;29;20409;-69
2022/07/04 06:26:46;;;;;;;5.85;2.70;;;;;;;35.12;25.10;100188.84;4956899;29;20142;-69
2022/07/04 06:29:15;;;;;;;6.28;2.90;;;;;;;34.31;26.45;100180.84;4956508;29;20059;-70
2022/07/04 06:31:44;;;;;;;3.90;2.90;;;;;;;35.93;24.61;100181.66;4956598;29;20047;-69
2022/07/04 06:36:59;;;;;;;4.32;2.70;;;;;;;36.27;24.35;100189.75;4932503;29;20059;-69
2022/07/04 06:39:28;;;;;;;5.43;2.42;;;;;;;35.89;24.90;100185.19;4956529;29;20094;-69
2022/07/04 06:41:56;;;;;;;3.70;2.60;;;;;;;36.48;23.35;100188.03;4956492;29;20055;-69
2022/07/04 06:44:25;;;;;;;3.83;2.10;;;;;;;35.75;23.61;100185.56;4956338;29;20046;-69
2022/07/04 06:46:53;;;;;;;5.57;2.50;;;;;;;36.03;23.65;100192.03;4939446;29;20055;-69
2022/07/04 06:49:21;;;;;;;3.85;2.40;;;;;;;36.24;23.12;100193.06;4956333;29;20141;-69
2022/07/04 06:51:49;;;;;;;3.63;2.08;;;;;;;36.24;22.98;100193.06;4956500;29;20073;-69
2022/07/04 06:54:18;;;;;;;3.30;2.17;;;;;;;36.54;23.29;100186.97;4956193;29;20448;-69
2022/07/04 06:56:46;;;;;;;5.78;2.00;;;;;;;36.52;22.46;100189.19;4956313;29;20058;-69
2022/07/04 06:59:14;;;;;;;2.72;1.70;;;;;;;35.35;23.27;100182.25;4956397;29;20374;-69
2022/07/04 07:01:44;;;;;;;2.88;1.90;;;;;;;35.32;22.99;100202.16;4956603;29;20097;-69
2022/07/04 07:04:12;;;;;;;4.40;1.90;;;;;;;34.53;24.05;100196.75;4956218;29;20511;-69
2022/07/04 07:06:40;;;;;;;2.65;1.80;;;;;;;33.64;25.33;100191.72;4955815;28;20114;-69
2022/07/04 07:09:09;;;;;;;4.45;1.60;;;;;;;33.17;25.21;100201.97;4956010;29;20098;-69
2022/07/04 07:11:37;;;;;;;4.47;1.58;;;;;;;32.75;25.98;100185.50;4955755;29;20555;-69
2022/07/04 07:14:05;;;;;;;3.10;1.80;;;;;;;32.99;26.00;100195.50;4938711;29;20054;-69
2022/07/04 07:16:33;;;;;;;2.78;2.03;;;;;;;32.91;26.25;100187.59;4955972;29;20082;-70
2022/07/04 07:19:03;;;;;;;3.35;1.80;;;;;;;32.71;25.84;100185.13;4956059;29;20122;-70
2022/07/04 07:21:31;;;;;;;3.03;1.60;;;;;;;32.70;26.18;100190.88;4955571;29;20046;-70
2022/07/04 07:24:00;;;;;;;2.28;1.60;;;;;;;32.77;25.97;100186.09;4955827;29;20056;-70
2022/07/04 07:26:28;;;;;;;4.32;1.95;;;;;;;32.64;26.25;100186.34;4955833;29;20047;-70
2022/07/04 07:28:57;;;;;;;3.35;1.70;;;;;;;32.28;26.25;100188.16;4955604;29;20415;-70
2022/07/04 07:31:25;;;;;;;2.63;1.80;;;;;;;32.54;26.33;100181.41;4938130;29;20086;-70
2022/07/04 07:33:53;;;;;;;3.03;1.95;;;;;;;32.28;25.91;100192.84;4955804;29;20043;-69
2022/07/04 07:36:23;;;;;;;3.10;1.67;;;;;;;32.19;25.69;100195.09;4955336;29;20497;-70
2022/07/04 07:38:52;;;;;;;3.45;1.75;;;;;;;31.95;26.24;100207.13;4955741;29;20047;-69
2022/07/04 07:41:21;;;;;;;3.30;1.80;;;;;;;32.10;26.25;100190.97;4955323;29;20051;-70
2022/07/04 07:43:49;;;;;;;4.93;1.80;;;;;;;31.75;26.55;100199.97;4955947;29;20469;-70
2022/07/04 07:46:17;;;;;;;2.85;1.80;;;;;;;31.66;26.68;100195.78;4938233;29;20151;-73
2022/07/04 07:48:46;;;;;;;3.20;1.83;;;;;;;31.57;26.99;100202.69;4955451;29;20118;-69
2022/07/04 07:51:15;;;;;;;4.10;1.92;;;;;;;31.73;26.39;100201.22;4955516;29;20043;-70
2022/07/04 07:53:45;;;;;;;3.22;1.60;;;;;;;31.74;26.35;100191.84;4955796;29;20102;-70
2022/07/04 07:56:33;;;;;;;3.03;1.85;;;;;;;31.55;26.66;100200.13;4955318;29;20043;-70
2022/07/04 07:59:01;;;;;;;4.25;1.80;;;;;;;31.37;27.02;100180.88;4955285;29;20055;-71
2022/07/04 08:01:29;;;;;;;2.75;1.70;;;;;;;31.48;26.74;100209.59;4955387;29;20043;-69
2022/07/04 08:06:49;;;;;;;2.38;1.58;;;;;;;31.69;26.99;100172.44;4955557;29;20047;-70
2022/07/04 08:09:40;;;;;;;4.18;1.85;;;;;;;31.62;26.59;100189.03;4954899;29;20043;-70
2022/07/04 08:12:09;;;;;;;6.40;1.90;;;;;;;31.50;26.16;100179.88;4955390;29;20480;-70
2022/07/04 08:14:37;;;;;;;4.78;1.77;;;;;;;31.34;26.46;100186.84;4955049;29;20082;-70
2022/07/04 08:17:06;;;;;;;2.67;1.50;;;;;;;31.42;26.60;100172.75;4955407;29;20185;-70
2022/07/04 08:19:34;;;;;;;2.80;1.60;;;;;;;31.57;26.10;100180.63;4954188;29;20039;-69
2022/07/04 08:22:03;;;;;;;3.53;1.67;;;;;;;31.69;25.94;100169.66;4954703;29;20086;-69
2022/07/04 08:24:44;;;;;;;2.83;1.60;;;;;;;31.43;26.36;100173.59;4954941;29;20050;-71
2022/07/04 08:27:13;;;;;;;3.38;1.50;;;;;;;31.58;25.61;100183.16;4955388;29;20047;-69
2022/07/04 08:29:41;;;;;;;3.25;1.63;;;;;;;31.47;25.84;100172.91;4937408;29;20059;-69
2022/07/04 08:32:10;;;;;;;2.05;1.65;;;;;;;31.30;25.22;100180.94;4954740;29;20130;-68
2022/07/04 08:34:38;;;;;;;2.45;1.30;;;;;;;31.60;24.99;100175.50;4954246;29;20044;-71
2022/07/04 08:37:07;;;;;;;2.78;1.40;;;;;;;31.61;24.57;100170.81;4955101;29;20043;-69
2022/07/04 08:39:36;;;;;;;3.05;1.50;;;;;;;31.66;25.65;100178.41;4954889;29;20051;-69
2022/07/04 08:42:10;;;;;;;3.00;1.80;;;;;;;31.97;25.44;100169.09;4937654;29;20059;-69
2022/07/04 08:44:41;;;;;;;4.05;1.80;;;;;;;31.44;26.21;100175.28;4954745;29;20071;-69
2022/07/04 08:47:17;;;;;;;3.50;1.58;;;;;;;31.52;25.62;100180.47;4954733;29;20047;-71
2022/07/04 08:49:54;;;;;;;1.67;1.40;;;;;;;31.53;24.34;100173.88;4954924;29;20048;-69
2022/07/04 08:52:37;;;;;;;2.40;1.30;;;;;;;31.30;24.40;100175.44;4954636;29;20043;-71
2022/07/04 09:00:40;;;;;;;2.13;1.40;;;;;;;31.56;25.11;100178.97;4954610;29;20047;-70
2022/07/04 09:03:10;;;;;;;4.32;1.50;;;;;;;31.70;24.19;100172.19;4954799;29;20560;-70
2022/07/04 09:05:39;;;;;;;1.95;1.40;;;;;;;31.53;24.27;100168.38;4954357;29;20043;-70
2022/07/04 09:08:07;;;;;;;2.53;1.33;;;;;;;31.55;23.78;100182.75;4937634;29;20082;-70
2022/07/04 09:10:36;;;;;;;2.75;1.73;;;;;;;31.45;25.09;100182.47;4954574;29;20043;-70
2022/07/04 09:13:07;;;;;;;2.58;1.52;;;;;;;31.37;24.67;100175.38;4954653;29;20067;-70
2022/07/04 09:15:40;;;;;;;2.55;1.40;;;;;;;31.69;24.04;100184.28;4954426;29;20047;-70
2022/07/04 09:18:20;;;;;;;3.47;1.45;;;;;;;31.69;23.08;100172.44;4937327;29;20058;-71
2022/07/04 09:20:49;;;;;;;2.63;1.48;;;;;;;31.74;23.62;100176.16;4937686;29;20051;-69
2022/07/04 09:23:19;;;;;;;2.05;1.52;;;;;;;31.85;23.95;100169.91;4937408;29;20070;-70
2022/07/04 09:25:47;;;;;;;3.30;1.50;;;;;;;31.92;24.59;100169.78;4954438;29;20039;-69
2022/07/04 09:28:28;;;;;;;2.78;1.50;;;;;;;32.06;25.03;100151.16;4933876;29;20486;-69
2022/07/04 09:30:58;;;;;;;2.40;1.30;;;;;;;32.05;24.27;100175.13;4935788;29;20056;-70
2022/07/04 09:33:45;;;;;;;2.25;1.40;;;;;;;31.76;24.04;100173.22;4937519;29;20048;-70
2022/07/04 09:36:14;;;;;;;2.05;1.58;;;;;;;31.92;24.55;100174.47;4937678;29;20098;-69
2022/07/04 09:38:43;;;;;;;3.30;1.70;;;;;;;32.19;24.66;100167.50;4938434;29;20350;-69
2022/07/04 09:41:29;;;;;;;3.30;1.70;;;;;;;32.16;24.88;100165.22;4938572;29;20100;-71
2022/07/04 09:44:04;;;;;;;2.58;1.63;;;;;;;32.10;25.45;100177.19;4938589;29;20099;-71
2022/07/04 09:46:33;;;;;;;3.75;1.60;;;;;;;32.02;25.08;100156.28;4937186;29;20079;-70
2022/07/04 09:49:01;;;;;;;2.53;1.70;;;;;;;32.10;25.42;100158.72;4937166;29;20059;-69
2022/07/04 09:51:42;;;;;;;4.15;1.70;;;;;;;32.29;25.22;100155.88;4938423;29;20143;-69
2022/07/04 09:54:31;;;;;;;4.28;1.55;;;;;;;32.43;25.56;100157.38;4938530;29;20044;-69
2022/07/04 09:57:02;;;;;;;3.35;1.70;;;;;;;32.46;25.82;100159.66;4933497;29;20059;-70
2022/07/04 09:59:32;;;;;;;3.25;1.80;;;;;;;32.27;25.59;100153.34;4938192;29;20082;-69
2022/07/04 10:02:09;;;;;;;3.22;1.90;;;;;;;32.34;25.75;100143.09;4936988;29;20075;-69
2022/07/04 10:04:44;;;;;;;5.25;1.88;;;;;;;32.42;25.41;100134.44;4938123;29;20060;-70
2022/07/04 10:07:30;;;;;;;4.00;1.88;;;;;;;32.69;25.37;100139.50;4938298;29;20067;-70
2022/07/04 10:09:58;;;;;;;3.67;1.80;;;;;;;32.75;24.24;100146.84;4936900;29;20063;-70
2022/07/04 10:12:27;;;;;;;2.30;1.52;;;;;;;32.62;24.41;100134.13;4936396;29;20052;-75
2022/07/04 10:14:57;;;;;;;3.47;1.88;;;;;;;32.74;24.78;100143.25;4938087;29;20118;-69
2022/07/04 10:17:25;;;;;;;4.05;1.80;;;;;;;32.58;24.56;100143.94;4938299;29;20043;-69
2022/07/04 10:19:54;;;;;;;3.42;1.83;;;;;;;32.83;24.66;100129.94;4936740;29;20449;-70
2022/07/04 10:22:23;;;;;;;3.03;1.80;;;;;;;32.65;24.79;100128.13;4936931;29;20048;-70
2022/07/04 10:24:52;;;;;;;6.43;2.00;;;;;;;32.53;24.79;100120.91;4937820;29;20453;-69
2022/07/04 10:27:20;;;;;;;3.35;1.50;;;;;;;32.82;25.06;100119.94;4936861;29;20130;-69
2022/07/04 10:29:49;;;;;;;2.30;1.73;;;;;;;32.75;24.82;100133.03;4936269;29;20118;-70
2022/07/04 10:32:21;;;;;;;4.20;1.65;;;;;;;32.72;25.46;100100.38;4937642;29;20070;-70
2022/07/04 10:34:49;;;;;;;2.88;1.55;;;;;;;33.01;24.79;100098.59;4936243;29;20055;-70
2022/07/04 10:37:17;;;;;;;4.57;1.42;;;;;;;32.94;24.27;100097.88;4936355;29;20060;-70
2022/07/04 10:39:45;;;;;;;3.53;1.70;;;;;;;32.98;24.39;100099.88;4937437;29;20048;-70
2022/07/04 10:42:24;;;;;;;3.95;1.58;;;;;;;33.08;24.24;100099.28;4936841;29;20050;-69
2022/07/04 10:44:53;;;;;;;2.40;1.60;;;;;;;33.20;23.84;100091.81;4937484;29;20453;-69
2022/07/04 10:47:27;;;;;;;2.83;1.67;;;;;;;33.34;23.75;100089.59;4937873;29;20060;-70
2022/07/04 10:49:56;;;;;;;2.42;1.48;;;;;;;33.14;24.15;100092.78;4937365;29;20044;-71
2022/07/04 10:52:24;;;;;;;3.40;1.58;;;;;;;33.06;24.44;100097.84;4937354;29;20485;-69
2022/07/04 10:54:52;;;;;;;2.45;1.67;;;;;;;33.02;24.65;100090.06;4937263;29;20128;-70
2022/07/04 10:57:22;;;;;;;3.03;1.80;;;;;;;33.10;24.75;100104.53;4937358;29;20074;-70
2022/07/04 11:00:05;;;;;;;3.53;1.70;;;;;;;33.27;24.77;100097.19;4937205;29;20155;-70
2022/07/04 11:02:36;;;;;;;2.78;1.58;;;;;;;32.88;24.63;100082.25;4936877;29;20486;-71
2022/07/04 11:05:07;;;;;;;2.55;1.50;;;;;;;32.88;24.69;100071.19;4937544;29;20047;-70
2022/07/04 11:08:00;;;;;;;2.53;1.58;;;;;;;33.05;24.15;100080.44;4937028;29;20044;-71
2022/07/04 11:10:33;;;;;;;3.38;1.50;;;;;;;33.26;22.85;100085.28;4919069;29;20056;-70
2022/07/04 11:13:20;;;;;;;2.30;1.42;;;;;;;33.18;22.60;100065.50;4936837;29;20048;-70
2022/07/04 11:16:05;;;;;;;2.80;1.50;;;;;;;33.22;22.92;100062.00;4937003;29;20052;-70
2022/07/04 11:18:43;;;;;;;3.10;1.70;;;;;;;33.45;23.25;100061.09;4936791;29;20153;-70
2022/07/04 11:21:22;;;;;;;2.65;1.50;;;;;;;33.79;22.89;100063.97;4936904;29;20051;-69
2022/07/04 11:23:55;;;;;;;4.53;1.83;;;;;;;33.90;22.01;100068.63;4936610;29;20099;-70
2022/07/04 11:26:24;;;;;;;2.10;1.33;;;;;;;33.69;20.39;100061.84;4936852;29;20559;-70
2022/07/04 11:28:53;;;;;;;2.10;1.45;;;;;;;33.70;20.95;100062.69;4946095;29;20414;-70
2022/07/04 11:31:21;;;;;;;3.15;1.40;;;;;;;33.61;21.61;100061.41;4955806;29;20453;-70
2022/07/04 11:33:56;;;;;;;2.55;1.40;;;;;;;33.32;22.20;100050.31;4955491;29;20134;-70
2022/07/04 11:36:24;;;;;;;2.88;1.50;;;;;;;33.41;21.83;100065.47;4955941;29;20046;-70
2022/07/04 11:38:55;;;;;;;2.33;1.48;;;;;;;33.46;22.37;100057.25;4938272;29;20103;-70
2022/07/04 11:47:04;;;;;;;2.50;1.50;;;;;;;33.56;21.34;100021.50;4955823;29;20051;-70
2022/07/04 11:49:33;;;;;;;1.67;1.27;;;;;;;33.59;21.71;100031.25;4938029;29;20102;-71
2022/07/04 11:52:02;;;;;;;2.63;1.20;;;;;;;33.74;20.99;100030.66;4955590;29;20469;-70
2022/07/04 11:54:31;;;;;;;1.50;1.20;;;;;;;33.74;19.71;100019.59;4954334;28;20039;-70
2022/07/04 11:57:22;;;;;;;2.72;1.20;;;;;;;33.73;19.82;100017.91;4938823;29;20501;-70
2022/07/04 11:59:55;;;;;;;2.72;1.40;;;;;;;33.95;20.94;100027.19;4938102;29;20469;-71